Aviation Digital Data Service (ADDS)

Output produced by TAFs form (1411 UTC 29 May 2015)
found at http://aviationweather.gov/adds/tafs/
 
KTCC 291128Z 2912/3012 04008KT P6SM SCT015 
     FM291600 06010G18KT P6SM SCT250 
     FM292200 08011KT P6SM VCTS SCT070CB BKN130 
     TEMPO 2922/3001 VRB15G25KT -TSRA BKN050CB 
     FM300600 04008KT P6SM -SHRA BKN050 
     FM300900 04009KT P6SM SCT025 BKN050